sensor_id;sensor_type;location;lat;lon;timestamp;pressure;altitude;pressure_sealevel;temperature;humidity
11971;BME280;6045;42.682;23.294;2023-06-10T00:01:34;94269.38;;;20.69;78.75
11971;BME280;6045;42.682;23.294;2023-06-10T00:04:02;94275.31;;;20.71;79.01
11971;BME280;6045;42.682;23.294;2023-06-10T00:06:29;94275.41;;;20.66;78.46
11971;BME280;6045;42.682;23.294;2023-06-10T00:09:02;94273.41;;;20.58;78.92
11971;BME280;6045;42.682;23.294;2023-06-10T00:11:31;94271.59;;;20.53;79.02
11971;BME280;6045;42.682;23.294;2023-06-10T00:13:58;94264.00;;;20.36;79.75
11971;BME280;6045;42.682;23.294;2023-06-10T00:16:26;94274.78;;;20.41;78.36
11971;BME280;6045;42.682;23.294;2023-06-10T00:18:53;94272.06;;;20.41;77.77
11971;BME280;6045;42.682;23.294;2023-06-10T00:21:25;94269.13;;;20.38;77.98
11971;BME280;6045;42.682;23.294;2023-06-10T00:23:52;94281.81;;;20.42;78.27
11971;BME280;6045;42.682;23.294;2023-06-10T00:26:21;94274.28;;;20.39;78.61
11971;BME280;6045;42.682;23.294;2023-06-10T00:28:48;94278.59;;;20.40;78.33
11971;BME280;6045;42.682;23.294;2023-06-10T00:31:15;94273.16;;;20.40;78.24
11971;BME280;6045;42.682;23.294;2023-06-10T00:33:44;94268.94;;;20.34;78.00
11971;BME280;6045;42.682;23.294;2023-06-10T00:38:56;94276.88;;;20.31;78.78
11971;BME280;6045;42.682;23.294;2023-06-10T00:41:23;94281.47;;;20.30;78.96
11971;BME280;6045;42.682;23.294;2023-06-10T00:43:51;94272.91;;;20.23;78.93
11971;BME280;6045;42.682;23.294;2023-06-10T00:46:18;94269.44;;;20.04;79.08
11971;BME280;6045;42.682;23.294;2023-06-10T00:48:47;94267.03;;;19.84;79.84
11971;BME280;6045;42.682;23.294;2023-06-10T00:51:15;94272.97;;;19.86;80.61
11971;BME280;6045;42.682;23.294;2023-06-10T00:53:43;94266.38;;;19.92;80.70
11971;BME280;6045;42.682;23.294;2023-06-10T00:56:10;94271.72;;;19.97;80.41
11971;BME280;6045;42.682;23.294;2023-06-10T00:58:37;94271.63;;;20.02;80.43
11971;BME280;6045;42.682;23.294;2023-06-10T01:01:04;94275.97;;;20.03;80.83
11971;BME280;6045;42.682;23.294;2023-06-10T01:03:31;94270.41;;;19.95;81.68
11971;BME280;6045;42.682;23.294;2023-06-10T01:06:08;94277.66;;;19.99;80.83
11971;BME280;6045;42.682;23.294;2023-06-10T01:08:42;94285.41;;;20.06;81.25
11971;BME280;6045;42.682;23.294;2023-06-10T01:11:16;94281.00;;;20.10;80.68
11971;BME280;6045;42.682;23.294;2023-06-10T01:13:45;94276.88;;;20.12;80.88
11971;BME280;6045;42.682;23.294;2023-06-10T01:16:13;94284.53;;;20.10;81.19
11971;BME280;6045;42.682;23.294;2023-06-10T01:18:40;94285.84;;;20.13;81.31
11971;BME280;6045;42.682;23.294;2023-06-10T01:21:19;94280.53;;;20.21;80.83
11971;BME280;6045;42.682;23.294;2023-06-10T01:23:46;94292.50;;;20.20;80.39
11971;BME280;6045;42.682;23.294;2023-06-10T01:26:13;94290.31;;;20.22;80.71
11971;BME280;6045;42.682;23.294;2023-06-10T01:28:47;94279.47;;;20.22;80.97
11971;BME280;6045;42.682;23.294;2023-06-10T01:31:18;94279.47;;;20.22;80.44
11971;BME280;6045;42.682;23.294;2023-06-10T01:33:50;94286.50;;;20.23;80.81
11971;BME280;6045;42.682;23.294;2023-06-10T01:36:19;94277.81;;;20.21;80.97
11971;BME280;6045;42.682;23.294;2023-06-10T01:38:50;94274.53;;;20.24;80.83
11971;BME280;6045;42.682;23.294;2023-06-10T01:41:17;94268.53;;;20.27;80.60
11971;BME280;6045;42.682;23.294;2023-06-10T01:43:46;94272.03;;;20.28;80.54
11971;BME280;6045;42.682;23.294;2023-06-10T01:46:13;94271.75;;;20.29;80.46
11971;BME280;6045;42.682;23.294;2023-06-10T01:48:41;94269.44;;;20.23;80.77
11971;BME280;6045;42.682;23.294;2023-06-10T01:51:08;94273.22;;;20.22;80.94
11971;BME280;6045;42.682;23.294;2023-06-10T01:53:36;94274.53;;;20.24;80.58
11971;BME280;6045;42.682;23.294;2023-06-10T01:56:03;94263.81;;;20.14;80.00
11971;BME280;6045;42.682;23.294;2023-06-10T01:58:30;94251.69;;;19.93;80.82
11971;BME280;6045;42.682;23.294;2023-06-10T02:00:57;94249.03;;;19.74;82.04
11971;BME280;6045;42.682;23.294;2023-06-10T02:03:23;94251.00;;;19.69;82.02
11971;BME280;6045;42.682;23.294;2023-06-10T02:05:50;94256.44;;;19.69;82.52
11971;BME280;6045;42.682;23.294;2023-06-10T02:08:17;94251.00;;;19.69;82.45
11971;BME280;6045;42.682;23.294;2023-06-10T02:10:46;94254.44;;;19.74;82.86
11971;BME280;6045;42.682;23.294;2023-06-10T02:13:12;94246.75;;;19.82;82.30
11971;BME280;6045;42.682;23.294;2023-06-10T02:15:39;94250.47;;;19.86;81.90
11971;BME280;6045;42.682;23.294;2023-06-10T02:18:06;94247.25;;;19.84;81.33
11971;BME280;6045;42.682;23.294;2023-06-10T02:20:33;94244.75;;;19.87;81.48
11971;BME280;6045;42.682;23.294;2023-06-10T02:23:00;94241.66;;;19.94;81.18
11971;BME280;6045;42.682;23.294;2023-06-10T02:25:27;94243.47;;;19.98;81.00
11971;BME280;6045;42.682;23.294;2023-06-10T02:27:55;94243.09;;;20.05;80.33
11971;BME280;6045;42.682;23.294;2023-06-10T02:30:22;94238.09;;;20.12;80.46
11971;BME280;6045;42.682;23.294;2023-06-10T02:32:49;94235.50;;;20.20;80.52
11971;BME280;6045;42.682;23.294;2023-06-10T02:35:16;94242.78;;;20.25;80.54
11971;BME280;6045;42.682;23.294;2023-06-10T02:37:43;94236.16;;;20.31;80.67
11971;BME280;6045;42.682;23.294;2023-06-10T02:40:11;94226.69;;;20.28;80.51
11971;BME280;6045;42.682;23.294;2023-06-10T02:42:38;94231.69;;;20.21;80.95
11971;BME280;6045;42.682;23.294;2023-06-10T02:45:07;94224.59;;;20.25;80.98
11971;BME280;6045;42.682;23.294;2023-06-10T02:47:34;94224.28;;;20.27;80.99
11971;BME280;6045;42.682;23.294;2023-06-10T02:50:01;94226.19;;;20.26;80.42
11971;BME280;6045;42.682;23.294;2023-06-10T02:52:29;94226.19;;;20.26;80.14
11971;BME280;6045;42.682;23.294;2023-06-10T02:54:56;94222.47;;;20.22;80.22
11971;BME280;6045;42.682;23.294;2023-06-10T02:57:23;94225.59;;;20.29;80.02
11971;BME280;6045;42.682;23.294;2023-06-10T02:59:50;94225.28;;;20.31;80.44
11971;BME280;6045;42.682;23.294;2023-06-10T03:02:20;94220.66;;;20.31;79.76
11971;BME280;6045;42.682;23.294;2023-06-10T03:04:47;94228.50;;;20.33;80.18
11971;BME280;6045;42.682;23.294;2023-06-10T03:07:15;94229.53;;;20.37;80.53
11971;BME280;6045;42.682;23.294;2023-06-10T03:09:44;94232.75;;;20.39;81.43
11971;BME280;6045;42.682;23.294;2023-06-10T03:12:10;94232.13;;;20.42;82.04
11971;BME280;6045;42.682;23.294;2023-06-10T03:14:37;94232.34;;;20.45;81.57
11971;BME280;6045;42.682;23.294;2023-06-10T03:17:05;94238.28;;;20.48;81.95
11971;BME280;6045;42.682;23.294;2023-06-10T03:19:35;94239.41;;;20.47;82.96
11971;BME280;6045;42.682;23.294;2023-06-10T03:22:10;94241.00;;;20.48;82.75
11971;BME280;6045;42.682;23.294;2023-06-10T03:24:38;94252.16;;;20.46;83.07
11971;BME280;6045;42.682;23.294;2023-06-10T03:27:06;94256.78;;;20.45;82.74
11971;BME280;6045;42.682;23.294;2023-06-10T03:29:33;94259.59;;;20.40;83.23
11971;BME280;6045;42.682;23.294;2023-06-10T03:32:00;94252.56;;;20.39;83.67
11971;BME280;6045;42.682;23.294;2023-06-10T03:34:27;94265.59;;;20.37;84.15
11971;BME280;6045;42.682;23.294;2023-06-10T03:36:56;94261.91;;;20.33;83.90
11971;BME280;6045;42.682;23.294;2023-06-10T03:39:23;94259.50;;;20.32;84.06
11971;BME280;6045;42.682;23.294;2023-06-10T03:41:50;94259.19;;;20.33;84.28
11971;BME280;6045;42.682;23.294;2023-06-10T03:44:17;94268.13;;;20.34;84.12
11971;BME280;6045;42.682;23.294;2023-06-10T03:46:44;94254.25;;;20.35;84.85
11971;BME280;6045;42.682;23.294;2023-06-10T03:49:11;94254.06;;;20.32;84.69
11971;BME280;6045;42.682;23.294;2023-06-10T03:51:38;94259.19;;;20.33;84.68
11971;BME280;6045;42.682;23.294;2023-06-10T03:54:06;94260.56;;;20.31;84.92
11971;BME280;6045;42.682;23.294;2023-06-10T03:56:33;94261.09;;;20.33;84.58
11971;BME280;6045;42.682;23.294;2023-06-10T03:59:00;94254.06;;;20.32;85.27
11971;BME280;6045;42.682;23.294;2023-06-10T04:01:27;94261.38;;;20.31;84.93
11971;BME280;6045;42.682;23.294;2023-06-10T04:03:54;94253.25;;;20.45;89.06
11971;BME280;6045;42.682;23.294;2023-06-10T04:06:21;94254.91;;;20.73;92.90
11971;BME280;6045;42.682;23.294;2023-06-10T04:08:50;94256.91;;;20.95;91.11
11971;BME280;6045;42.682;23.294;2023-06-10T04:11:18;94254.91;;;21.14;89.31
11971;BME280;6045;42.682;23.294;2023-06-10T04:13:46;94258.09;;;21.30;86.97
11971;BME280;6045;42.682;23.294;2023-06-10T04:16:13;94260.00;;;21.43;85.49
11971;BME280;6045;42.682;23.294;2023-06-10T04:18:39;94261.31;;;21.67;83.14
11971;BME280;6045;42.682;23.294;2023-06-10T04:21:07;94266.34;;;21.88;83.68
11971;BME280;6045;42.682;23.294;2023-06-10T04:23:36;94265.41;;;22.14;83.95
11971;BME280;6045;42.682;23.294;2023-06-10T04:26:07;94261.56;;;22.15;78.10
11971;BME280;6045;42.682;23.294;2023-06-10T04:28:35;94263.59;;;22.10;77.59
11971;BME280;6045;42.682;23.294;2023-06-10T04:31:02;94261.63;;;22.24;83.65
11971;BME280;6045;42.682;23.294;2023-06-10T04:33:29;94268.59;;;22.38;81.87
11971;BME280;6045;42.682;23.294;2023-06-10T04:35:56;94258.25;;;22.49;79.29
11971;BME280;6045;42.682;23.294;2023-06-10T04:38:23;94266.38;;;22.40;76.66
11971;BME280;6045;42.682;23.294;2023-06-10T04:41:03;94269.34;;;22.30;76.27
11971;BME280;6045;42.682;23.294;2023-06-10T04:43:30;94274.69;;;22.13;76.56
11971;BME280;6045;42.682;23.294;2023-06-10T04:45:58;94268.31;;;22.18;80.54
11971;BME280;6045;42.682;23.294;2023-06-10T04:48:25;94262.66;;;22.36;79.62
11971;BME280;6045;42.682;23.294;2023-06-10T04:50:52;94266.31;;;22.32;77.48
11971;BME280;6045;42.682;23.294;2023-06-10T04:53:19;94260.97;;;22.18;77.46
11971;BME280;6045;42.682;23.294;2023-06-10T04:55:46;94268.94;;;22.15;77.11
11971;BME280;6045;42.682;23.294;2023-06-10T04:58:13;94266.69;;;22.17;76.43
11971;BME280;6045;42.682;23.294;2023-06-10T05:00:41;94262.66;;;22.14;76.47
11971;BME280;6045;42.682;23.294;2023-06-10T05:03:10;94265.47;;;22.01;76.69
11971;BME280;6045;42.682;23.294;2023-06-10T05:05:37;94258.19;;;21.88;76.02
11971;BME280;6045;42.682;23.294;2023-06-10T05:08:04;94263.63;;;21.74;77.13
11971;BME280;6045;42.682;23.294;2023-06-10T05:10:30;94265.78;;;21.63;77.02
11971;BME280;6045;42.682;23.294;2023-06-10T05:12:57;94261.38;;;21.54;77.74
11971;BME280;6045;42.682;23.294;2023-06-10T05:17:59;94264.03;;;21.45;78.37
11971;BME280;6045;42.682;23.294;2023-06-10T05:20:29;94265.13;;;21.44;78.31
11971;BME280;6045;42.682;23.294;2023-06-10T05:22:56;94259.69;;;21.44;78.48
11971;BME280;6045;42.682;23.294;2023-06-10T05:25:23;94271.47;;;21.40;78.97
11971;BME280;6045;42.682;23.294;2023-06-10T05:27:49;94265.53;;;21.38;78.98
11971;BME280;6045;42.682;23.294;2023-06-10T05:30:16;94264.13;;;21.40;78.99
11971;BME280;6045;42.682;23.294;2023-06-10T05:32:44;94274.19;;;21.40;79.22
11971;BME280;6045;42.682;23.294;2023-06-10T05:35:10;94266.75;;;21.45;79.30
11971;BME280;6045;42.682;23.294;2023-06-10T05:37:39;94275.56;;;21.51;79.09
11971;BME280;6045;42.682;23.294;2023-06-10T05:40:07;94267.03;;;21.57;79.89
11971;BME280;6045;42.682;23.294;2023-06-10T05:42:34;94266.09;;;21.62;79.42
11971;BME280;6045;42.682;23.294;2023-06-10T05:45:00;94271.06;;;21.82;79.95
11971;BME280;6045;42.682;23.294;2023-06-10T05:47:27;94279.06;;;22.01;78.78
11971;BME280;6045;42.682;23.294;2023-06-10T05:49:54;94274.19;;;22.11;77.38
11971;BME280;6045;42.682;23.294;2023-06-10T05:52:21;94275.09;;;22.29;77.66
11971;BME280;6045;42.682;23.294;2023-06-10T05:54:49;94273.72;;;22.40;76.22
11971;BME280;6045;42.682;23.294;2023-06-10T05:57:16;94280.78;;;22.41;73.81
11971;BME280;6045;42.682;23.294;2023-06-10T05:59:43;94271.69;;;22.23;73.51
11971;BME280;6045;42.682;23.294;2023-06-10T06:02:10;94288.84;;;22.24;75.24
11971;BME280;6045;42.682;23.294;2023-06-10T06:04:37;94283.41;;;22.24;74.39
11971;BME280;6045;42.682;23.294;2023-06-10T06:07:04;94281.16;;;22.26;74.75
11971;BME280;6045;42.682;23.294;2023-06-10T06:09:31;94278.97;;;22.28;74.35
11971;BME280;6045;42.682;23.294;2023-06-10T06:11:59;94277.72;;;22.34;73.95
11971;BME280;6045;42.682;23.294;2023-06-10T06:14:26;94275.25;;;22.55;74.38
11971;BME280;6045;42.682;23.294;2023-06-10T06:16:53;94279.53;;;22.69;74.01
11971;BME280;6045;42.682;23.294;2023-06-10T06:19:20;94277.28;;;22.71;73.11
11971;BME280;6045;42.682;23.294;2023-06-10T06:21:46;94283.09;;;22.78;72.16
11971;BME280;6045;42.682;23.294;2023-06-10T06:24:14;94281.53;;;22.86;73.08
11971;BME280;6045;42.682;23.294;2023-06-10T06:26:40;94290.22;;;22.96;72.47
11971;BME280;6045;42.682;23.294;2023-06-10T06:29:09;94289.66;;;23.08;72.56
11971;BME280;6045;42.682;23.294;2023-06-10T06:31:35;94287.44;;;23.19;72.24
11971;BME280;6045;42.682;23.294;2023-06-10T06:34:02;94288.91;;;23.25;71.79
11971;BME280;6045;42.682;23.294;2023-06-10T06:36:29;94284.28;;;23.34;71.77
11971;BME280;6045;42.682;23.294;2023-06-10T06:38:56;94281.59;;;23.51;70.21
11971;BME280;6045;42.682;23.294;2023-06-10T06:41:24;94279.19;;;23.58;69.94
11971;BME280;6045;42.682;23.294;2023-06-10T06:43:51;94278.56;;;23.69;69.02
11971;BME280;6045;42.682;23.294;2023-06-10T06:46:19;94281.63;;;23.76;69.15
11971;BME280;6045;42.682;23.294;2023-06-10T06:48:46;94269.09;;;23.84;68.66
11971;BME280;6045;42.682;23.294;2023-06-10T06:51:13;94272.47;;;23.98;68.43
11971;BME280;6045;42.682;23.294;2023-06-10T06:53:43;94272.03;;;24.13;67.80
11971;BME280;6045;42.682;23.294;2023-06-10T06:56:11;94272.34;;;24.20;67.19
11971;BME280;6045;42.682;23.294;2023-06-10T06:58:38;94275.88;;;24.12;66.57
11971;BME280;6045;42.682;23.294;2023-06-10T07:01:04;94272.34;;;23.95;65.48
11971;BME280;6045;42.682;23.294;2023-06-10T07:03:33;94263.00;;;23.61;67.09
11971;BME280;6045;42.682;23.294;2023-06-10T07:05:59;94269.38;;;23.40;68.79
11971;BME280;6045;42.682;23.294;2023-06-10T07:08:26;94262.97;;;23.44;69.08
11971;BME280;6045;42.682;23.294;2023-06-10T07:10:53;94270.03;;;23.62;68.44
11971;BME280;6045;42.682;23.294;2023-06-10T07:13:20;94260.59;;;23.68;68.13
11971;BME280;6045;42.682;23.294;2023-06-10T07:15:47;94263.81;;;23.79;67.92
11971;BME280;6045;42.682;23.294;2023-06-10T07:18:14;94259.47;;;23.78;66.78
11971;BME280;6045;42.682;23.294;2023-06-10T07:20:43;94257.84;;;23.51;65.71
11971;BME280;6045;42.682;23.294;2023-06-10T07:23:10;94254.63;;;23.49;66.79
11971;BME280;6045;42.682;23.294;2023-06-10T07:25:37;94257.69;;;23.48;66.92
11971;BME280;6045;42.682;23.294;2023-06-10T07:28:06;94250.97;;;23.71;67.12
11971;BME280;6045;42.682;23.294;2023-06-10T07:30:33;94247.09;;;23.63;65.08
11971;BME280;6045;42.682;23.294;2023-06-10T07:33:00;94251.91;;;23.58;66.26
11971;BME280;6045;42.682;23.294;2023-06-10T07:35:27;94259.28;;;23.49;65.93
11971;BME280;6045;42.682;23.294;2023-06-10T07:37:55;94252.88;;;23.70;64.98
11971;BME280;6045;42.682;23.294;2023-06-10T07:40:23;94254.81;;;24.04;65.20
11971;BME280;6045;42.682;23.294;2023-06-10T07:42:50;94255.44;;;24.35;64.15
11971;BME280;6045;42.682;23.294;2023-06-10T07:45:18;94249.31;;;24.38;64.59
11971;BME280;6045;42.682;23.294;2023-06-10T07:47:45;94255.81;;;24.80;63.71
11971;BME280;6045;42.682;23.294;2023-06-10T07:50:11;94253.38;;;25.25;60.68
11971;BME280;6045;42.682;23.294;2023-06-10T07:52:38;94253.84;;;25.56;59.61
11971;BME280;6045;42.682;23.294;2023-06-10T07:55:07;94256.75;;;25.80;59.96
11971;BME280;6045;42.682;23.294;2023-06-10T07:57:34;94251.97;;;26.31;58.05
11971;BME280;6045;42.682;23.294;2023-06-10T08:00:02;94257.72;;;26.71;56.63
11971;BME280;6045;42.682;23.294;2023-06-10T08:02:29;94253.44;;;27.18;55.01
11971;BME280;6045;42.682;23.294;2023-06-10T08:04:56;94251.06;;;27.17;53.26
11971;BME280;6045;42.682;23.294;2023-06-10T08:07:23;94243.19;;;27.51;53.32
11971;BME280;6045;42.682;23.294;2023-06-10T08:09:50;94244.47;;;27.94;51.03
11971;BME280;6045;42.682;23.294;2023-06-10T08:12:19;94249.72;;;28.11;50.06
11971;BME280;6045;42.682;23.294;2023-06-10T08:14:45;94240.91;;;28.05;47.79
11971;BME280;6045;42.682;23.294;2023-06-10T08:17:12;94247.81;;;27.99;48.91
11971;BME280;6045;42.682;23.294;2023-06-10T08:19:39;94241.03;;;28.09;49.29
11971;BME280;6045;42.682;23.294;2023-06-10T08:22:06;94239.19;;;28.13;49.53
11971;BME280;6045;42.682;23.294;2023-06-10T08:24:33;94232.75;;;28.21;48.78
11971;BME280;6045;42.682;23.294;2023-06-10T08:26:59;94223.50;;;28.13;47.29
11971;BME280;6045;42.682;23.294;2023-06-10T08:29:28;94225.94;;;28.30;47.09
11971;BME280;6045;42.682;23.294;2023-06-10T08:31:55;94225.16;;;28.30;47.85
11971;BME280;6045;42.682;23.294;2023-06-10T08:34:22;94222.69;;;28.13;46.75
11971;BME280;6045;42.682;23.294;2023-06-10T08:36:49;94215.66;;;28.27;47.78
11971;BME280;6045;42.682;23.294;2023-06-10T08:39:18;94218.44;;;28.43;46.61
11971;BME280;6045;42.682;23.294;2023-06-10T08:41:49;94215.09;;;28.50;46.81
11971;BME280;6045;42.682;23.294;2023-06-10T08:44:23;94215.25;;;28.69;48.03
11971;BME280;6045;42.682;23.294;2023-06-10T08:46:55;94221.63;;;28.88;46.70
11971;BME280;6045;42.682;23.294;2023-06-10T08:49:23;94213.56;;;29.11;46.90
11971;BME280;6045;42.682;23.294;2023-06-10T08:51:54;94209.47;;;29.05;43.29
11971;BME280;6045;42.682;23.294;2023-06-10T08:54:25;94206.81;;;29.08;44.65
11971;BME280;6045;42.682;23.294;2023-06-10T08:56:55;94208.94;;;29.15;44.49
11971;BME280;6045;42.682;23.294;2023-06-10T08:59:25;94203.78;;;29.13;43.05
11971;BME280;6045;42.682;23.294;2023-06-10T09:01:53;94204.19;;;29.28;44.48
11971;BME280;6045;42.682;23.294;2023-06-10T09:04:21;94205.28;;;29.42;44.23
11971;BME280;6045;42.682;23.294;2023-06-10T09:06:49;94200.63;;;29.62;43.69
11971;BME280;6045;42.682;23.294;2023-06-10T09:09:16;94201.56;;;29.85;43.48
11971;BME280;6045;42.682;23.294;2023-06-10T09:11:45;94201.31;;;29.74;43.60
11971;BME280;6045;42.682;23.294;2023-06-10T09:14:11;94192.53;;;29.34;43.99
11971;BME280;6045;42.682;23.294;2023-06-10T09:16:39;94196.59;;;29.40;43.37
11971;BME280;6045;42.682;23.294;2023-06-10T09:19:07;94196.84;;;29.35;43.56
11971;BME280;6045;42.682;23.294;2023-06-10T09:21:34;94192.00;;;29.29;43.95
11971;BME280;6045;42.682;23.294;2023-06-10T09:24:02;94191.50;;;29.42;42.29
11971;BME280;6045;42.682;23.294;2023-06-10T09:26:29;94192.09;;;29.67;44.79
11971;BME280;6045;42.682;23.294;2023-06-10T09:29:02;94182.72;;;29.87;41.86
11971;BME280;6045;42.682;23.294;2023-06-10T09:31:29;94176.63;;;29.28;42.13
11971;BME280;6045;42.682;23.294;2023-06-10T09:34:06;94186.09;;;29.46;44.15
11971;BME280;6045;42.682;23.294;2023-06-10T09:36:33;94181.03;;;30.02;42.82
11971;BME280;6045;42.682;23.294;2023-06-10T09:39:01;94184.50;;;30.33;39.56
11971;BME280;6045;42.682;23.294;2023-06-10T09:41:40;94177.84;;;30.57;39.71
11971;BME280;6045;42.682;23.294;2023-06-10T09:44:11;94174.22;;;30.34;40.59
11971;BME280;6045;42.682;23.294;2023-06-10T09:46:39;94177.63;;;30.47;40.49
11971;BME280;6045;42.682;23.294;2023-06-10T09:49:07;94174.22;;;30.53;41.05
11971;BME280;6045;42.682;23.294;2023-06-10T09:51:34;94171.91;;;30.78;40.17
11971;BME280;6045;42.682;23.294;2023-06-10T09:54:02;94164.44;;;31.01;41.13
11971;BME280;6045;42.682;23.294;2023-06-10T09:56:33;94167.25;;;31.04;40.26
11971;BME280;6045;42.682;23.294;2023-06-10T09:59:01;94162.22;;;30.87;39.25
11971;BME280;6045;42.682;23.294;2023-06-10T10:01:30;94165.88;;;30.72;40.55
11971;BME280;6045;42.682;23.294;2023-06-10T10:03:58;94163.53;;;30.93;39.55
11971;BME280;6045;42.682;23.294;2023-06-10T10:06:27;94160.72;;;30.90;38.17
11971;BME280;6045;42.682;23.294;2023-06-10T10:08:54;94158.31;;;30.69;36.23
11971;BME280;6045;42.682;23.294;2023-06-10T10:11:25;94162.03;;;30.54;38.22
11971;BME280;6045;42.682;23.294;2023-06-10T10:13:53;94155.78;;;30.57;40.23
11971;BME280;6045;42.682;23.294;2023-06-10T10:16:21;94143.94;;;30.57;38.92
11971;BME280;6045;42.682;23.294;2023-06-10T10:18:53;94147.72;;;30.29;38.75
11971;BME280;6045;42.682;23.294;2023-06-10T10:21:22;94150.59;;;29.95;39.67
11971;BME280;6045;42.682;23.294;2023-06-10T10:23:53;94141.47;;;29.75;40.56
11971;BME280;6045;42.682;23.294;2023-06-10T10:26:25;94139.78;;;30.05;42.37
11971;BME280;6045;42.682;23.294;2023-06-10T10:28:59;94138.97;;;30.43;39.69
11971;BME280;6045;42.682;23.294;2023-06-10T10:31:32;94135.75;;;30.41;38.17
11971;BME280;6045;42.682;23.294;2023-06-10T10:34:06;94132.50;;;30.16;39.95
11971;BME280;6045;42.682;23.294;2023-06-10T10:36:33;94137.59;;;30.56;35.97
11971;BME280;6045;42.682;23.294;2023-06-10T10:39:04;94130.56;;;30.59;35.99
11971;BME280;6045;42.682;23.294;2023-06-10T10:41:31;94128.41;;;30.49;36.32
11971;BME280;6045;42.682;23.294;2023-06-10T10:43:59;94133.31;;;30.59;37.29
11971;BME280;6045;42.682;23.294;2023-06-10T10:46:27;94127.97;;;30.47;39.23
11971;BME280;6045;42.682;23.294;2023-06-10T10:48:54;94121.41;;;30.77;39.36
11971;BME280;6045;42.682;23.294;2023-06-10T10:51:23;94115.97;;;31.30;39.64
11971;BME280;6045;42.682;23.294;2023-06-10T10:54:10;94117.75;;;31.71;35.00
11971;BME280;6045;42.682;23.294;2023-06-10T10:56:38;94112.81;;;31.87;36.21
11971;BME280;6045;42.682;23.294;2023-06-10T10:59:06;94103.00;;;32.23;35.68
11971;BME280;6045;42.682;23.294;2023-06-10T11:01:43;94112.44;;;32.55;34.68
11971;BME280;6045;42.682;23.294;2023-06-10T11:04:12;94112.19;;;32.30;34.67
11971;BME280;6045;42.682;23.294;2023-06-10T11:06:39;94111.31;;;31.93;34.68
11971;BME280;6045;42.682;23.294;2023-06-10T11:09:28;94109.28;;;31.57;35.32
11971;BME280;6045;42.682;23.294;2023-06-10T11:11:57;94097.16;;;31.39;33.76
11971;BME280;6045;42.682;23.294;2023-06-10T11:14:28;94091.41;;;30.98;34.31
11971;BME280;6045;42.682;23.294;2023-06-10T11:16:56;94089.91;;;30.33;35.33
11971;BME280;6045;42.682;23.294;2023-06-10T11:19:33;94086.56;;;30.24;36.14
11971;BME280;6045;42.682;23.294;2023-06-10T11:22:01;94096.16;;;30.11;36.48
11971;BME280;6045;42.682;23.294;2023-06-10T11:24:30;94085.28;;;29.99;37.77
11971;BME280;6045;42.682;23.294;2023-06-10T11:27:15;94081.06;;;29.47;35.46
11971;BME280;6045;42.682;23.294;2023-06-10T11:29:55;94076.97;;;29.22;35.86
11971;BME280;6045;42.682;23.294;2023-06-10T11:32:22;94072.59;;;29.37;38.36
11971;BME280;6045;42.682;23.294;2023-06-10T11:34:52;94068.72;;;29.22;41.59
11971;BME280;6045;42.682;23.294;2023-06-10T11:37:19;94072.22;;;28.88;42.69
11971;BME280;6045;42.682;23.294;2023-06-10T11:39:51;94077.84;;;28.44;43.44
11971;BME280;6045;42.682;23.294;2023-06-10T11:42:18;94067.97;;;28.28;41.17
11971;BME280;6045;42.682;23.294;2023-06-10T11:44:48;94071.69;;;28.04;42.29
11971;BME280;6045;42.682;23.294;2023-06-10T11:47:15;94071.69;;;28.04;42.15
11971;BME280;6045;42.682;23.294;2023-06-10T11:49:42;94070.72;;;27.85;42.81
11971;BME280;6045;42.682;23.294;2023-06-10T11:52:09;94064.91;;;27.86;42.51
11971;BME280;6045;42.682;23.294;2023-06-10T11:54:36;94070.22;;;27.95;42.29
11971;BME280;6045;42.682;23.294;2023-06-10T11:57:04;94069.13;;;28.27;42.98
11971;BME280;6045;42.682;23.294;2023-06-10T11:59:34;94066.44;;;28.15;42.02
11971;BME280;6045;42.682;23.294;2023-06-10T12:02:00;94057.31;;;28.58;42.34
11971;BME280;6045;42.682;23.294;2023-06-10T12:04:28;94054.78;;;28.65;39.07
11971;BME280;6045;42.682;23.294;2023-06-10T12:06:55;94052.38;;;28.32;42.03
11971;BME280;6045;42.682;23.294;2023-06-10T12:09:23;94065.69;;;28.30;44.43
11971;BME280;6045;42.682;23.294;2023-06-10T12:11:51;94059.13;;;28.34;45.86
11971;BME280;6045;42.682;23.294;2023-06-10T12:14:57;94052.47;;;28.51;42.34
11971;BME280;6045;42.682;23.294;2023-06-10T12:17:36;94062.56;;;28.47;38.84
11971;BME280;6045;42.682;23.294;2023-06-10T12:20:05;94052.00;;;28.18;39.36
11971;BME280;6045;42.682;23.294;2023-06-10T12:22:36;94049.78;;;28.08;42.03
11971;BME280;6045;42.682;23.294;2023-06-10T12:25:05;94055.91;;;28.01;41.49
11971;BME280;6045;42.682;23.294;2023-06-10T12:27:33;94053.78;;;28.10;40.86
11971;BME280;6045;42.682;23.294;2023-06-10T12:30:04;94053.94;;;28.17;39.11
11971;BME280;6045;42.682;23.294;2023-06-10T12:32:41;94040.56;;;28.31;38.35
11971;BME280;6045;42.682;23.294;2023-06-10T12:35:09;94049.72;;;28.35;38.26
11971;BME280;6045;42.682;23.294;2023-06-10T12:37:37;94042.09;;;28.44;39.43
11971;BME280;6045;42.682;23.294;2023-06-10T12:40:05;94038.19;;;28.61;38.90
11971;BME280;6045;42.682;23.294;2023-06-10T12:42:33;94035.44;;;28.61;40.14
11971;BME280;6045;42.682;23.294;2023-06-10T12:45:04;94034.88;;;28.56;38.98
11971;BME280;6045;42.682;23.294;2023-06-10T12:47:36;94030.00;;;28.49;43.35
11971;BME280;6045;42.682;23.294;2023-06-10T12:50:05;94024.78;;;28.44;40.57
11971;BME280;6045;42.682;23.294;2023-06-10T12:52:32;94036.16;;;28.42;41.30
11971;BME280;6045;42.682;23.294;2023-06-10T12:54:59;94033.41;;;28.42;37.37
11971;BME280;6045;42.682;23.294;2023-06-10T12:57:26;94039.59;;;28.39;35.71
11971;BME280;6045;42.682;23.294;2023-06-10T12:59:53;94033.94;;;28.32;34.71
11971;BME280;6045;42.682;23.294;2023-06-10T13:02:27;94038.25;;;28.33;35.97
11971;BME280;6045;42.682;23.294;2023-06-10T13:04:54;94028.25;;;28.25;39.17
11971;BME280;6045;42.682;23.294;2023-06-10T13:07:21;94032.41;;;28.19;40.51
11971;BME280;6045;42.682;23.294;2023-06-10T13:09:48;94038.44;;;28.09;42.05
11971;BME280;6045;42.682;23.294;2023-06-10T13:12:15;94040.06;;;27.98;42.59